Данни от 31.07.2021 г. 18:45:54

Температура вътрешна: 30.1 °C
Температура външна: 34.5 °C
Атмосферно налягане: 990.3 hPa
Атмосферно налягане на морско равнище: 1008.0 hPa
Влажност: 52.9 %



История от последните 24 часа

Дата и часTin [°C]P [hPa]Psl [hPa]H [%]Tout [°C]
   31.07.2021 г. 18:30:54      30.1      990.3      1008.0      53.4      35.4   
   31.07.2021 г. 18:00:54      30.1      990.4      1008.1      52.8      40.5   
   31.07.2021 г. 17:30:54      30.1      990.5      1008.1      53.5      42.4   
   31.07.2021 г. 17:00:54      30.0      990.6      1008.2      52.3      41.3   
   31.07.2021 г. 16:30:54      30.0      990.8      1008.4      52.5      40.1   
   31.07.2021 г. 16:00:54      29.9      990.9      1008.6      51.8      38.9   
   31.07.2021 г. 15:30:54      29.9      990.9      1008.6      52.4      37.7   
   31.07.2021 г. 15:00:54      29.8      990.9      1008.6      51.9      36.5   
   31.07.2021 г. 14:30:54      29.8      991.1      1008.8      52.2      35.3   
   31.07.2021 г. 14:00:54      29.8      991.5      1009.2      52.5      34.1   
   31.07.2021 г. 13:30:54      29.8      991.6      1009.3      52.7      33.8   
   31.07.2021 г. 13:00:54      29.8      991.8      1009.5      52.5      32.9   
   31.07.2021 г. 12:30:54      29.8      992.1      1009.8      53.2      32.1   
   31.07.2021 г. 12:00:54      29.7      992.1      1009.8      52.2      31.4   
   31.07.2021 г. 11:30:55      29.7      992.4      1010.1      52.3      30.6   
   31.07.2021 г. 11:00:54      29.6      992.5      1010.2      53.4      29.9   
   31.07.2021 г. 10:30:55      29.6      992.6      1010.3      53.9      29.0   
   31.07.2021 г. 10:00:54      29.6      992.5      1010.2      54.1      28.1   
   31.07.2021 г. 09:30:55      29.5      992.4      1010.1      53.5      27.5   
   31.07.2021 г. 09:00:54      29.4      992.5      1010.2      53.6      26.6   
   31.07.2021 г. 08:30:54      29.3      992.4      1010.1      53.9      26.0   
   31.07.2021 г. 08:00:54      29.2      992.3      1010.0      53.2      25.4   
   31.07.2021 г. 07:30:54      29.0      992.0      1009.7      53.4      24.9   
   31.07.2021 г. 07:00:54      28.8      991.9      1009.6      52.6      24.5   
   31.07.2021 г. 06:30:54      28.8      991.7      1009.4      52.0      23.5   
   31.07.2021 г. 06:00:54      28.8      991.5      1009.2      51.9      23.3   
   31.07.2021 г. 05:30:54      28.8      991.3      1009.0      52.2      23.8   
   31.07.2021 г. 05:00:54      29.0      991.3      1009.0      52.6      24.4   
   31.07.2021 г. 04:30:54      28.9      991.4      1009.1      54.3      24.8   
   31.07.2021 г. 04:00:54      29.1      991.5      1009.2      54.1      26.8   
   31.07.2021 г. 03:30:54      29.4      991.5      1009.2      54.5      27.3   
   31.07.2021 г. 03:00:54      29.5      991.4      1009.1      53.8      27.6   
   31.07.2021 г. 02:30:54      29.5      991.3      1009.0      53.7      28.0   
   31.07.2021 г. 02:00:54      29.5      991.4      1009.1      54.9      28.4   
   31.07.2021 г. 01:30:54      29.6      991.5      1009.2      53.7      28.6   
   31.07.2021 г. 01:00:54      29.6      991.4      1009.1      51.9      28.5   
   31.07.2021 г. 00:30:54      29.6      991.6      1009.3      52.6      28.6   
   31.07.2021 г. 00:00:54      29.7      991.6      1009.3      53.7      28.3   
   30.07.2021 г. 23:30:54      29.7      991.7      1009.4      53.8      28.3   
   30.07.2021 г. 23:00:54      29.7      991.7      1009.4      53.5      27.6   
   30.07.2021 г. 22:30:54      29.7      991.7      1009.4      52.2      28.4   
   30.07.2021 г. 22:00:54      29.6      991.5      1009.2      50.9      28.6   
   30.07.2021 г. 21:30:54      29.6      991.2      1008.9      50.5      29.0   
   30.07.2021 г. 21:00:55      29.6      990.9      1008.6      51.5      29.9   
   30.07.2021 г. 20:30:54      29.6      990.9      1008.6      50.8      31.0   
   30.07.2021 г. 20:00:55      29.6      990.7      1008.4      50.9      33.6   
   30.07.2021 г. 19:30:54      29.5      990.6      1008.3      50.9      34.4   
   30.07.2021 г. 19:00:55      29.5      990.4      1008.0      50.1      38.0   

BaroSL graphic

TEMPE graphic